Time;durP1;ratioP1;P1;durP2;ratioP2;P2;SDS_P1;SDS_P2;PMS_P1;PMS_P2;Temp;Humidity;BMP_temperature;BMP_pressure;BME280_temperature;BME280_humidity;BME280_pressure;Samples;Min_cycle;Max_cycle;Signal;HPM_P1;HPM_P2
2023/11/23 05:01:34;;;;;;;1.13;1.03;;;4.20;97.30;;;;;;5413359;23;20508;-89
2023/11/23 05:03:59;;;;;;;1.20;1.10;;;4.20;97.30;;;;;;4889224;29;20445;-87
2023/11/23 05:06:25;;;;;;;3.53;1.37;;;4.20;97.30;;;;;;4893134;29;20588;-87
2023/11/23 05:08:51;;;;;;;1.20;1.10;;;4.30;97.30;;;;;;4895271;29;20233;-86
2023/11/23 05:11:17;;;;;;;1.20;1.10;;;4.30;97.30;;;;;;4889292;29;20493;-86
2023/11/23 05:13:43;;;;;;;1.20;1.10;;;4.30;97.30;;;;;;4882515;29;20178;-87
2023/11/23 05:16:08;;;;;;;1.27;1.23;;;4.30;97.30;;;;;;4879310;29;20426;-86
2023/11/23 05:18:34;;;;;;;1.40;1.30;;;4.30;97.30;;;;;;4895824;29;20181;-87
2023/11/23 05:20:59;;;;;;;1.20;1.10;;;4.40;97.30;;;;;;4884470;29;20315;-87
2023/11/23 05:23:25;;;;;;;1.97;1.87;;;4.40;97.30;;;;;;4890209;29;20197;-87
2023/11/23 05:25:51;;;;;;;1.17;1.07;;;4.40;97.30;;;;;;4895577;29;20185;-88
2023/11/23 05:28:17;;;;;;;1.30;1.20;;;4.40;97.30;;;;;;4881278;29;20189;-87
2023/11/23 05:30:45;;;;;;;1.10;1.00;;;4.40;97.30;;;;;;4877423;29;20450;-87
2023/11/23 05:33:11;;;;;;;1.13;1.03;;;4.40;97.30;;;;;;4878930;29;20680;-86
2023/11/23 05:35:36;;;;;;;1.30;1.20;;;4.50;97.30;;;;;;4878948;29;20437;-87
2023/11/23 05:38:02;;;;;;;1.23;1.13;;;4.50;97.30;;;;;;4877760;29;20699;-90
2023/11/23 05:40:27;;;;;;;1.00;0.90;;;4.50;97.30;;;;;;4884393;29;20628;-87
2023/11/23 05:42:53;;;;;;;1.60;1.50;;;4.50;97.30;;;;;;4884117;29;20192;-87
2023/11/23 05:45:19;;;;;;;1.83;1.77;;;4.60;97.30;;;;;;4887248;29;20181;-87
2023/11/23 05:47:45;;;;;;;1.97;1.37;;;4.60;97.30;;;;;;4884814;29;20663;-88
2023/11/23 05:50:11;;;;;;;1.57;1.47;;;4.60;97.30;;;;;;4899374;29;20330;-86
2023/11/23 05:52:37;;;;;;;1.10;1.00;;;4.60;97.30;;;;;;4882729;29;20851;-89
2023/11/23 05:55:03;;;;;;;2.13;1.97;;;4.70;97.30;;;;;;4886801;29;20422;-87
2023/11/23 05:57:28;;;;;;;1.10;1.00;;;4.70;97.30;;;;;;4882243;29;20277;-88
2023/11/23 05:59:54;;;;;;;2.33;1.80;;;4.70;97.30;;;;;;4886166;29;20551;-86
2023/11/23 06:02:20;;;;;;;3.47;2.20;;;4.70;97.30;;;;;;4886332;29;20327;-85
2023/11/23 06:04:45;;;;;;;1.10;1.00;;;4.80;97.30;;;;;;4886482;29;20453;-90
2023/11/23 06:07:11;;;;;;;2.53;1.93;;;4.80;97.30;;;;;;4886574;29;20193;-87
2023/11/23 06:09:37;;;;;;;1.87;1.77;;;4.80;97.30;;;;;;4903019;29;20205;-89
2023/11/23 06:12:04;;;;;;;1.10;1.00;;;4.80;97.30;;;;;;4917345;29;20449;-91
2023/11/23 06:14:33;;;;;;;1.33;1.23;;;4.80;97.30;;;;;;4919237;29;20548;-90
2023/11/23 06:16:58;;;;;;;2.87;1.47;;;4.90;97.30;;;;;;4898977;29;20426;-91
2023/11/23 06:19:24;;;;;;;1.10;1.00;;;4.90;97.30;;;;;;4900917;29;20468;-89
2023/11/23 06:21:50;;;;;;;1.10;1.00;;;4.90;97.30;;;;;;4906099;29;20220;-91
2023/11/23 06:24:16;;;;;;;1.40;1.30;;;4.90;97.30;;;;;;4907625;29;20220;-90
2023/11/23 06:26:42;;;;;;;1.83;1.73;;;4.90;97.30;;;;;;4907283;29;20196;-92
2023/11/23 06:29:08;;;;;;;1.83;1.60;;;4.90;97.30;;;;;;4897850;29;20421;-86
2023/11/23 06:31:34;;;;;;;1.37;1.27;;;5.00;97.30;;;;;;4886864;29;20203;-89
2023/11/23 06:34:00;;;;;;;2.27;2.10;;;5.00;97.30;;;;;;4901962;29;20425;-88
2023/11/23 06:36:25;;;;;;;1.20;1.10;;;5.00;97.30;;;;;;4919894;29;20193;-89
2023/11/23 06:38:51;;;;;;;1.70;1.60;;;5.00;97.30;;;;;;4903376;29;20224;-91
2023/11/23 06:41:21;;;;;;;1.47;1.37;;;5.10;97.30;;;;;;4908332;29;20212;-89
2023/11/23 06:43:48;;;;;;;1.30;1.20;;;5.10;97.30;;;;;;4876200;29;20196;-89
2023/11/23 06:46:15;;;;;;;1.20;1.13;;;5.10;97.30;;;;;;4882423;29;20437;-88
2023/11/23 06:48:40;;;;;;;2.20;1.20;;;5.10;97.30;;;;;;4898231;29;20434;-88
2023/11/23 06:51:06;;;;;;;2.23;2.03;;;5.10;97.30;;;;;;4898528;29;20873;-88
2023/11/23 06:53:33;;;;;;;1.53;1.43;;;5.20;97.30;;;;;;4887989;29;20193;-88
2023/11/23 06:56:02;;;;;;;1.60;1.50;;;5.20;97.30;;;;;;4883622;29;20429;-88
2023/11/23 06:58:28;;;;;;;1.23;1.13;;;5.20;97.30;;;;;;4885331;29;20629;-87
2023/11/23 07:00:54;;;;;;;1.00;0.90;;;5.30;97.30;;;;;;4887610;29;20493;-89
2023/11/23 07:03:21;;;;;;;2.40;1.80;;;5.30;97.30;;;;;;4883771;29;20530;-87
2023/11/23 07:05:47;;;;;;;1.67;1.57;;;5.30;97.30;;;;;;4883291;29;20196;-90
2023/11/23 07:08:12;;;;;;;1.20;1.10;;;5.40;97.30;;;;;;4876166;29;20811;-87
2023/11/23 07:10:41;;;;;;;1.57;1.47;;;5.40;97.30;;;;;;4882712;29;20257;-88
2023/11/23 07:13:07;;;;;;;1.10;1.00;;;5.40;97.30;;;;;;4883999;29;20201;-88
2023/11/23 07:15:33;;;;;;;3.47;3.27;;;5.40;97.30;;;;;;4887874;29;20593;-86
2023/11/23 07:17:59;;;;;;;1.10;1.00;;;5.50;97.30;;;;;;4883578;29;20489;-88
2023/11/23 07:20:26;;;;;;;1.57;1.30;;;5.50;97.30;;;;;;4883808;29;20916;-88
2023/11/23 07:22:52;;;;;;;1.10;1.00;;;5.50;97.30;;;;;;4883391;29;20437;-90
2023/11/23 07:25:18;;;;;;;3.57;2.10;;;5.50;97.30;;;;;;4897855;29;20449;-88
2023/11/23 07:27:43;;;;;;;1.67;1.60;;;5.50;97.30;;;;;;4897517;29;20535;-89
2023/11/23 07:30:10;;;;;;;10.33;1.53;;;5.50;97.30;;;;;;4882249;29;20430;-87
2023/11/23 07:32:36;;;;;;;1.43;1.33;;;5.60;97.30;;;;;;4883091;29;20236;-88
2023/11/23 07:35:03;;;;;;;3.73;1.20;;;5.60;97.30;;;;;;4880622;29;20546;-91
2023/11/23 07:37:30;;;;;;;1.70;1.37;;;5.60;97.30;;;;;;4881153;29;20433;-88
2023/11/23 07:39:56;;;;;;;1.10;1.00;;;5.60;97.30;;;;;;4897017;29;20436;-88
2023/11/23 07:42:22;;;;;;;1.43;1.33;;;5.60;97.30;;;;;;4881044;29;20564;-88
2023/11/23 07:44:48;;;;;;;1.23;1.13;;;5.70;97.30;;;;;;4882210;29;20932;-87
2023/11/23 07:47:15;;;;;;;1.17;1.07;;;5.70;97.30;;;;;;4882883;29;20478;-86
2023/11/23 07:49:42;;;;;;;2.30;2.17;;;5.70;97.30;;;;;;4882406;29;20217;-88
2023/11/23 07:52:08;;;;;;;1.10;1.00;;;5.70;97.30;;;;;;4897200;29;20816;-86
2023/11/23 07:54:33;;;;;;;1.10;1.00;;;5.70;97.30;;;;;;4881182;29;20466;-89
2023/11/23 07:56:59;;;;;;;1.67;1.57;;;5.70;97.30;;;;;;4897001;29;20200;-88
2023/11/23 07:59:25;;;;;;;1.50;1.40;;;5.70;97.30;;;;;;4886605;29;20696;-88
2023/11/23 08:01:54;;;;;;;1.30;1.20;;;5.70;97.30;;;;;;4881890;29;20513;-87
2023/11/23 08:04:19;;;;;;;1.50;1.40;;;5.70;97.30;;;;;;4881091;29;20244;-89
2023/11/23 08:06:45;;;;;;;1.10;1.00;;;5.80;97.30;;;;;;4881622;29;20433;-88
2023/11/23 08:09:15;;;;;;;1.90;1.83;;;5.80;97.30;;;;;;4881456;29;20234;-88
2023/11/23 08:11:41;;;;;;;2.80;1.37;;;5.80;97.30;;;;;;4883693;29;20314;-88
2023/11/23 08:14:07;;;;;;;1.23;1.13;;;5.80;97.30;;;;;;4895632;29;21000;-87
2023/11/23 08:16:32;;;;;;;1.20;1.10;;;5.70;97.30;;;;;;4881247;29;20692;-88
2023/11/23 08:18:58;;;;;;;3.07;2.87;;;5.70;97.30;;;;;;4880921;29;20600;-88
2023/11/23 08:21:23;;;;;;;2.83;2.63;;;5.70;97.30;;;;;;4880966;29;20600;-89
2023/11/23 08:23:49;;;;;;;1.60;1.50;;;5.60;97.30;;;;;;4885887;29;20255;-89
2023/11/23 08:26:15;;;;;;;1.80;1.73;;;5.60;97.30;;;;;;4896238;29;20223;-88
2023/11/23 08:28:41;;;;;;;1.93;1.83;;;5.60;97.30;;;;;;4883547;29;20212;-88
2023/11/23 08:31:07;;;;;;;1.30;1.20;;;5.70;97.30;;;;;;4879932;29;20460;-88
2023/11/23 08:33:32;;;;;;;3.70;1.00;;;5.70;97.30;;;;;;4880479;29;20467;-87
2023/11/23 08:35:58;;;;;;;2.43;2.27;;;5.70;97.30;;;;;;4880304;29;20188;-87
2023/11/23 08:38:27;;;;;;;3.33;1.43;;;5.70;97.30;;;;;;4887966;29;20676;-88
2023/11/23 08:40:52;;;;;;;3.23;1.67;;;5.80;97.30;;;;;;4881400;29;20308;-88
2023/11/23 08:43:18;;;;;;;10.67;2.17;;;5.80;97.30;;;;;;4880542;29;20501;-87
2023/11/23 08:45:44;;;;;;;7.83;2.80;;;5.80;97.30;;;;;;4880201;29;20205;-88
2023/11/23 08:48:09;;;;;;;1.50;1.40;;;5.90;97.30;;;;;;4879559;29;20901;-88
2023/11/23 08:50:35;;;;;;;2.50;2.07;;;5.90;97.30;;;;;;4880088;29;20564;-88
2023/11/23 08:53:01;;;;;;;1.50;1.40;;;5.90;97.30;;;;;;4879802;29;20668;-88
2023/11/23 08:55:28;;;;;;;2.27;1.50;;;5.90;97.30;;;;;;4880465;29;20189;-88
2023/11/23 08:57:54;;;;;;;4.00;2.20;;;5.90;97.30;;;;;;4880622;29;20490;-87
2023/11/23 09:00:23;;;;;;;2.47;2.07;;;6.00;97.30;;;;;;4880888;29;20430;-87
2023/11/23 09:02:53;;;;;;;2.30;1.33;;;6.00;97.30;;;;;;4879317;29;20568;-85
2023/11/23 09:05:20;;;;;;;1.43;1.33;;;6.00;97.30;;;;;;4879698;29;20418;-88
2023/11/23 09:07:49;;;;;;;1.70;1.53;;;6.00;97.30;;;;;;4896269;29;20425;-87
2023/11/23 09:10:18;;;;;;;1.43;1.33;;;6.00;97.30;;;;;;4888348;29;20764;-88
2023/11/23 09:12:43;;;;;;;1.17;1.07;;;6.00;97.30;;;;;;4879419;29;20453;-87
2023/11/23 09:15:10;;;;;;;1.67;1.57;;;6.10;97.30;;;;;;4879235;29;20425;-88
2023/11/23 09:17:36;;;;;;;1.43;1.33;;;6.10;97.30;;;;;;4879249;29;20185;-88
2023/11/23 09:20:04;;;;;;;2.47;2.20;;;6.20;97.30;;;;;;4879008;29;20429;-88
2023/11/23 09:22:33;;;;;;;1.40;1.30;;;6.20;97.30;;;;;;4886491;29;20508;-89
2023/11/23 09:24:59;;;;;;;1.53;1.43;;;6.30;97.30;;;;;;4879268;29;20433;-87
2023/11/23 09:27:25;;;;;;;1.47;1.40;;;6.40;97.30;;;;;;4880696;29;20443;-88
2023/11/23 09:29:50;;;;;;;4.43;1.60;;;6.40;97.30;;;;;;4888908;29;20193;-87
2023/11/23 09:32:16;;;;;;;2.40;2.17;;;6.50;97.30;;;;;;4895329;29;20209;-86
2023/11/23 09:34:41;;;;;;;1.67;1.30;;;6.60;97.30;;;;;;4879011;29;20212;-88
2023/11/23 09:37:07;;;;;;;1.20;1.10;;;6.60;97.30;;;;;;4878598;29;20717;-87
2023/11/23 09:39:34;;;;;;;4.87;2.07;;;6.70;97.30;;;;;;4878712;29;20193;-89
2023/11/23 09:42:03;;;;;;;1.17;1.10;;;6.80;97.30;;;;;;4885998;29;20229;-87
2023/11/23 09:44:29;;;;;;;3.00;2.80;;;6.80;97.30;;;;;;4876466;29;20426;-87
2023/11/23 09:46:56;;;;;;;1.60;1.50;;;6.90;97.30;;;;;;4885723;29;20515;-87
2023/11/23 09:49:23;;;;;;;1.20;1.10;;;6.90;97.30;;;;;;4875146;29;20852;-88
2023/11/23 09:51:51;;;;;;;1.30;1.20;;;6.90;97.30;;;;;;4878174;29;20540;-90
2023/11/23 09:54:21;;;;;;;1.10;1.00;;;6.90;97.30;;;;;;4893857;29;20433;-88
2023/11/23 09:56:47;;;;;;;1.27;1.17;;;7.00;97.30;;;;;;4893937;29;20441;-87
2023/11/23 09:59:13;;;;;;;3.83;2.03;;;7.00;97.30;;;;;;4893431;29;20668;-88
2023/11/23 10:01:47;;;;;;;3.63;1.30;;;7.00;97.30;;;;;;4878258;29;20229;-87
2023/11/23 10:04:13;;;;;;;2.20;1.40;;;7.00;97.30;;;;;;4895044;29;20184;-86
2023/11/23 10:06:40;;;;;;;0.93;0.83;;;7.10;97.30;;;;;;4893373;29;20426;-88
2023/11/23 10:09:07;;;;;;;2.13;1.67;;;7.10;97.30;;;;;;4894878;29;20505;-89
2023/11/23 10:11:33;;;;;;;1.63;1.53;;;7.10;97.30;;;;;;4878366;29;20464;-87
2023/11/23 10:13:58;;;;;;;1.70;1.60;;;7.10;97.30;;;;;;4885630;29;20433;-88
2023/11/23 10:16:24;;;;;;;2.27;1.50;;;7.20;97.30;;;;;;4886875;29;20276;-88
2023/11/23 10:18:49;;;;;;;3.63;1.67;;;7.20;97.30;;;;;;4885695;29;20190;-87
2023/11/23 10:21:15;;;;;;;2.50;2.30;;;7.20;97.30;;;;;;4878344;29;20235;-87
2023/11/23 10:23:41;;;;;;;1.83;1.70;;;7.30;97.30;;;;;;4885481;29;20213;-89
2023/11/23 10:26:10;;;;;;;2.40;2.20;;;7.40;97.30;;;;;;4885051;29;20209;-88
2023/11/23 10:28:41;;;;;;;1.13;1.10;;;7.40;97.30;;;;;;4881844;29;20432;-89
2023/11/23 10:31:06;;;;;;;3.27;1.90;;;7.50;97.30;;;;;;4895199;29;20509;-86
2023/11/23 10:33:35;;;;;;;1.20;1.10;;;7.50;97.30;;;;;;4883596;29;20952;-84
2023/11/23 10:36:04;;;;;;;1.00;0.90;;;7.60;97.30;;;;;;4881594;29;20202;-85
2023/11/23 10:38:39;;;;;;;1.50;1.40;;;7.60;97.30;;;;;;4890535;29;20449;-87
2023/11/23 10:41:09;;;;;;;3.87;1.83;;;7.60;97.30;;;;;;4896015;29;20503;-88
2023/11/23 10:43:36;;;;;;;1.73;1.53;;;7.70;97.30;;;;;;4898097;29;20444;-88
2023/11/23 10:46:08;;;;;;;2.40;1.80;;;7.70;97.30;;;;;;4897738;29;20417;-87
2023/11/23 10:48:34;;;;;;;4.00;1.70;;;7.70;97.30;;;;;;4890636;29;20571;-90
2023/11/23 10:51:03;;;;;;;2.10;1.20;;;7.70;97.30;;;;;;4893688;29;20833;-88
2023/11/23 10:53:29;;;;;;;1.60;1.50;;;7.70;97.30;;;;;;4895784;29;20605;-88
2023/11/23 10:56:00;;;;;;;3.13;2.17;;;7.70;97.30;;;;;;4881147;29;20507;-86
2023/11/23 10:58:30;;;;;;;2.03;1.73;;;7.80;97.30;;;;;;4898292;29;20431;-87
2023/11/23 11:00:57;;;;;;;1.20;1.10;;;7.80;97.30;;;;;;4886052;29;20564;-90
2023/11/23 11:03:23;;;;;;;1.83;1.73;;;7.80;97.30;;;;;;4897614;29;20501;-89
2023/11/23 11:05:49;;;;;;;1.60;1.30;;;7.90;97.30;;;;;;4894969;29;20429;-90
2023/11/23 11:08:20;;;;;;;2.03;1.80;;;7.90;97.30;;;;;;4894964;29;20447;-87
2023/11/23 11:10:50;;;;;;;2.77;1.63;;;7.90;97.30;;;;;;4897996;29;20445;-88
2023/11/23 11:13:18;;;;;;;1.87;1.77;;;8.00;97.30;;;;;;4894184;29;20798;-85
2023/11/23 11:15:56;;;;;;;1.97;1.63;;;8.00;97.30;;;;;;4887712;29;20489;-87
2023/11/23 11:18:27;;;;;;;1.53;1.43;;;8.00;97.30;;;;;;4894312;29;20433;-87
2023/11/23 11:21:07;;;;;;;1.77;1.67;;;8.00;97.30;;;;;;4891715;29;20552;-87
2023/11/23 11:23:51;;;;;;;1.87;1.77;;;8.10;97.30;;;;;;4892072;29;20441;-86
2023/11/23 11:26:27;;;;;;;5.90;3.03;;;8.20;97.30;;;;;;4893906;29;20417;-89
2023/11/23 11:28:58;;;;;;;1.80;1.70;;;8.20;97.30;;;;;;4887268;29;20433;-87
2023/11/23 11:31:31;;;;;;;3.13;3.00;;;8.20;97.30;;;;;;4890685;29;20508;-86
2023/11/23 11:33:57;;;;;;;2.80;1.80;;;8.20;97.30;;;;;;4897034;29;20963;-87
2023/11/23 11:36:27;;;;;;;1.53;1.43;;;8.20;97.30;;;;;;4882340;29;20433;-87
2023/11/23 11:39:01;;;;;;;2.40;1.73;;;8.20;97.30;;;;;;4901802;29;20470;-86
2023/11/23 11:41:29;;;;;;;1.33;1.23;;;8.20;97.30;;;;;;4880411;29;21197;-87
2023/11/23 11:44:03;;;;;;;2.20;1.67;;;8.20;97.30;;;;;;4887247;29;20465;-88
2023/11/23 11:46:29;;;;;;;1.50;1.40;;;8.20;97.30;;;;;;4881775;29;20527;-87
2023/11/23 11:48:57;;;;;;;2.33;2.17;;;8.20;97.30;;;;;;4893649;29;20674;-88
2023/11/23 11:51:26;;;;;;;5.00;1.83;;;8.20;97.30;;;;;;4874865;29;20213;-88
2023/11/23 11:53:56;;;;;;;1.27;1.17;;;8.20;97.30;;;;;;4893322;29;20567;-87
2023/11/23 11:56:22;;;;;;;1.17;1.10;;;8.20;97.30;;;;;;4887499;29;20508;-88
2023/11/23 11:58:49;;;;;;;3.17;2.80;;;8.30;97.30;;;;;;4881473;29;20485;-87
2023/11/23 12:01:15;;;;;;;1.40;1.30;;;8.30;97.30;;;;;;4896174;29;20489;-86
2023/11/23 12:03:40;;;;;;;1.23;1.13;;;8.30;97.30;;;;;;4886747;29;20425;-86
2023/11/23 12:06:06;;;;;;;3.17;2.03;;;8.30;97.30;;;;;;4881962;29;20802;-88
2023/11/23 12:08:36;;;;;;;2.27;2.10;;;8.40;97.30;;;;;;4892999;29;20203;-89
2023/11/23 12:11:03;;;;;;;1.83;1.73;;;8.40;97.30;;;;;;4881414;29;20457;-87
2023/11/23 12:13:29;;;;;;;1.10;1.00;;;8.40;97.30;;;;;;4885505;29;20434;-89
2023/11/23 12:15:55;;;;;;;5.43;2.23;;;8.40;97.30;;;;;;4886065;29;20453;-87
2023/11/23 12:18:35;;;;;;;2.40;2.10;;;8.40;97.30;;;;;;4886111;29;20496;-88
2023/11/23 12:21:06;;;;;;;8.30;2.50;;;8.40;97.30;;;;;;4885440;29;20531;-89
2023/11/23 12:23:42;;;;;;;2.80;2.60;;;8.40;97.30;;;;;;4896539;29;20422;-87
2023/11/23 12:26:14;;;;;;;1.83;1.53;;;8.40;97.30;;;;;;4881057;29;20437;-86
2023/11/23 12:28:40;;;;;;;1.20;1.10;;;8.50;97.30;;;;;;4888057;29;20457;-86
2023/11/23 12:31:07;;;;;;;1.57;1.47;;;8.50;97.30;;;;;;4891960;29;20481;-85
2023/11/23 12:33:33;;;;;;;7.43;2.90;;;8.50;97.30;;;;;;4896811;29;20429;-86
2023/11/23 12:36:00;;;;;;;1.30;1.20;;;8.50;97.30;;;;;;4892104;29;20497;-87
2023/11/23 12:38:26;;;;;;;1.73;1.67;;;8.50;97.30;;;;;;4876428;29;20441;-87
2023/11/23 12:40:51;;;;;;;1.30;1.20;;;8.40;97.30;;;;;;4882368;29;20469;-86
2023/11/23 12:43:17;;;;;;;2.23;2.03;;;8.40;97.30;;;;;;4882498;29;20627;-88
2023/11/23 12:45:43;;;;;;;3.33;1.97;;;8.40;97.30;;;;;;4897028;29;20659;-88
2023/11/23 12:48:10;;;;;;;12.40;2.30;;;8.40;97.30;;;;;;4895929;29;20486;-87
2023/11/23 12:50:35;;;;;;;3.03;2.23;;;8.50;97.30;;;;;;4891694;29;20188;-85
2023/11/23 12:53:01;;;;;;;3.17;2.20;;;8.50;97.30;;;;;;4895370;29;20433;-87
2023/11/23 12:55:26;;;;;;;2.30;1.73;;;8.50;97.30;;;;;;4891434;29;20291;-87
2023/11/23 12:57:54;;;;;;;2.20;1.80;;;8.60;97.30;;;;;;4888129;29;20196;-88
2023/11/23 13:00:22;;;;;;;4.03;1.57;;;8.60;97.30;;;;;;4880418;29;20178;-87
2023/11/23 13:02:48;;;;;;;2.23;1.83;;;8.70;97.30;;;;;;4887024;29;20500;-87
2023/11/23 13:05:13;;;;;;;4.00;2.30;;;8.70;97.30;;;;;;4890602;29;20429;-88
2023/11/23 13:07:39;;;;;;;1.33;1.23;;;8.70;97.30;;;;;;4883195;29;20177;-87
2023/11/23 13:10:06;;;;;;;1.87;1.83;;;8.70;97.30;;;;;;4894446;29;20193;-85
2023/11/23 13:12:35;;;;;;;1.33;1.33;;;8.70;97.30;;;;;;4887949;29;20216;-87
2023/11/23 13:15:00;;;;;;;1.53;1.43;;;8.70;97.30;;;;;;4893448;29;20421;-87
2023/11/23 13:17:26;;;;;;;1.50;1.40;;;8.70;97.30;;;;;;4879810;29;20437;-85
2023/11/23 13:19:52;;;;;;;1.57;1.47;;;8.70;97.30;;;;;;4895263;29;20208;-87
2023/11/23 13:22:18;;;;;;;1.40;1.30;;;8.70;97.30;;;;;;4877646;29;20212;-86
2023/11/23 13:24:45;;;;;;;3.10;2.73;;;8.80;97.30;;;;;;4878638;29;20433;-85
2023/11/23 13:27:13;;;;;;;1.70;1.60;;;8.80;97.30;;;;;;4878103;29;20425;-86
2023/11/23 13:29:39;;;;;;;2.00;1.40;;;8.80;97.30;;;;;;4880688;29;20432;-87
2023/11/23 13:32:05;;;;;;;2.30;2.10;;;8.80;97.30;;;;;;4878240;29;20490;-87
2023/11/23 13:34:31;;;;;;;1.90;1.77;;;8.80;97.30;;;;;;4882559;29;20422;-87
2023/11/23 13:36:58;;;;;;;2.60;2.40;;;8.80;97.30;;;;;;4882381;29;20181;-86
2023/11/23 13:39:25;;;;;;;1.33;1.27;;;8.80;97.30;;;;;;4890054;29;21007;-81
2023/11/23 13:41:51;;;;;;;3.40;3.00;;;8.80;97.30;;;;;;4889024;29;20512;-89
2023/11/23 13:44:17;;;;;;;2.10;1.50;;;8.80;97.30;;;;;;4883151;29;20453;-87
2023/11/23 13:46:44;;;;;;;2.07;1.93;;;8.80;97.30;;;;;;4895356;29;20173;-86
2023/11/23 13:49:10;;;;;;;23.53;2.90;;;8.80;97.30;;;;;;4878149;29;20509;-87
2023/11/23 13:51:39;;;;;;;3.23;1.70;;;8.80;97.30;;;;;;4907580;29;20453;-87
2023/11/23 13:54:04;;;;;;;4.60;3.17;;;8.80;97.30;;;;;;4886883;29;20429;-84
2023/11/23 13:56:30;;;;;;;4.53;2.13;;;8.80;97.30;;;;;;4894871;29;20433;-86
2023/11/23 13:58:56;;;;;;;1.57;1.47;;;8.80;97.30;;;;;;4878426;29;20425;-86
2023/11/23 14:01:22;;;;;;;2.80;2.57;;;8.80;97.30;;;;;;4889510;29;20766;-86
2023/11/23 14:03:48;;;;;;;2.60;2.07;;;8.80;97.30;;;;;;4884369;29;20272;-88
2023/11/23 14:06:16;;;;;;;2.77;2.63;;;8.80;97.30;;;;;;4890298;29;20624;-85
2023/11/23 14:08:41;;;;;;;1.63;1.53;;;8.80;97.30;;;;;;4892492;29;20429;-86
2023/11/23 14:11:07;;;;;;;4.73;1.73;;;8.90;97.30;;;;;;4892626;29;20455;-87
2023/11/23 14:13:33;;;;;;;2.10;1.63;;;8.90;97.30;;;;;;4876563;29;20189;-87
2023/11/23 14:15:59;;;;;;;1.63;1.53;;;8.90;97.30;;;;;;4892662;29;20592;-87
2023/11/23 14:18:24;;;;;;;13.77;2.80;;;8.90;97.30;;;;;;4887293;29;20565;-87
2023/11/23 14:20:50;;;;;;;3.57;2.50;;;8.90;97.30;;;;;;4882862;29;20221;-88
2023/11/23 14:23:17;;;;;;;3.20;2.13;;;8.90;97.30;;;;;;4883546;29;20268;-85
2023/11/23 14:25:43;;;;;;;1.20;1.10;;;8.90;97.30;;;;;;4888269;29;20185;-84
2023/11/23 14:28:15;;;;;;;6.00;1.93;;;8.90;97.30;;;;;;4886621;29;21023;-86
2023/11/23 14:30:42;;;;;;;2.20;1.80;;;8.90;97.30;;;;;;4883980;29;20280;-84
2023/11/23 14:33:11;;;;;;;1.40;1.30;;;8.90;97.30;;;;;;4876794;29;20465;-86
2023/11/23 14:35:37;;;;;;;1.73;1.63;;;8.90;97.30;;;;;;4891846;29;20835;-85
2023/11/23 14:38:05;;;;;;;3.23;1.20;;;8.90;97.30;;;;;;4882423;29;20453;-87
2023/11/23 14:40:31;;;;;;;1.20;1.10;;;8.90;97.30;;;;;;4878548;29;20440;-85
2023/11/23 14:42:56;;;;;;;10.97;2.17;;;8.90;97.30;;;;;;4881729;29;20437;-86
2023/11/23 14:45:23;;;;;;;1.70;1.60;;;8.80;97.30;;;;;;4883759;29;20822;-86
2023/11/23 14:47:48;;;;;;;1.37;1.30;;;8.80;97.30;;;;;;4883731;29;20205;-86
2023/11/23 14:50:16;;;;;;;2.87;1.67;;;8.80;97.30;;;;;;4883631;29;20944;-86
2023/11/23 14:52:42;;;;;;;1.90;1.80;;;8.80;97.30;;;;;;4880341;29;20295;-86
2023/11/23 14:55:10;;;;;;;7.20;2.27;;;8.70;97.30;;;;;;4883145;29;20602;-88
2023/11/23 14:57:37;;;;;;;7.70;3.10;;;8.70;97.30;;;;;;4886495;29;20209;-85
2023/11/23 15:00:04;;;;;;;4.00;2.57;;;8.70;97.30;;;;;;4888854;29;20489;-86
2023/11/23 15:02:30;;;;;;;1.73;1.63;;;8.70;97.30;;;;;;4885190;29;20963;-86
2023/11/23 15:04:56;;;;;;;1.73;1.63;;;8.70;97.30;;;;;;4877293;29;20435;-84
2023/11/23 15:07:24;;;;;;;1.93;1.23;;;8.70;97.30;;;;;;4881459;29;20276;-85
2023/11/23 15:09:50;;;;;;;4.13;1.90;;;8.60;97.30;;;;;;4888566;29;20437;-85
2023/11/23 15:12:16;;;;;;;3.17;2.97;;;8.60;97.30;;;;;;4885962;29;20449;-86
2023/11/23 15:14:42;;;;;;;1.60;1.50;;;8.60;97.30;;;;;;4886274;29;20441;-84
2023/11/23 15:17:07;;;;;;;2.63;2.43;;;8.60;97.30;;;;;;4881287;29;20194;-85
2023/11/23 15:19:34;;;;;;;1.70;1.40;;;8.60;97.30;;;;;;4884424;29;20193;-86
2023/11/23 15:22:05;;;;;;;1.73;1.63;;;8.60;97.30;;;;;;4880433;29;20292;-85
2023/11/23 15:24:40;;;;;;;3.00;1.70;;;8.60;97.30;;;;;;4879703;29;20946;-84
2023/11/23 15:27:07;;;;;;;2.40;1.67;;;8.60;97.30;;;;;;4881454;29;20821;-85
2023/11/23 15:29:33;;;;;;;1.47;1.37;;;8.60;97.30;;;;;;4896435;29;20429;-85
2023/11/23 15:32:02;;;;;;;2.33;2.17;;;8.60;97.30;;;;;;4876258;29;20465;-86
2023/11/23 15:34:29;;;;;;;1.60;1.50;;;8.60;97.30;;;;;;4879195;29;20489;-85
2023/11/23 15:36:56;;;;;;;2.23;1.83;;;8.60;97.30;;;;;;4896157;29;20441;-85
2023/11/23 15:39:21;;;;;;;7.70;3.57;;;8.60;97.30;;;;;;4882810;29;20426;-85
2023/11/23 15:41:47;;;;;;;1.30;1.20;;;8.60;97.30;;;;;;4880675;29;20480;-85
2023/11/23 15:44:13;;;;;;;3.27;3.17;;;8.60;97.30;;;;;;4881804;29;20538;-86
2023/11/23 15:46:42;;;;;;;2.73;2.00;;;8.60;97.30;;;;;;4880591;29;20185;-85
2023/11/23 15:49:10;;;;;;;2.40;1.63;;;8.50;97.30;;;;;;4884385;29;20418;-85
2023/11/23 15:51:36;;;;;;;3.27;1.73;;;8.50;97.30;;;;;;4879603;29;20593;-86
2023/11/23 15:54:04;;;;;;;1.63;1.57;;;8.50;97.30;;;;;;4884269;29;20466;-85
2023/11/23 15:56:30;;;;;;;1.60;1.50;;;8.50;97.30;;;;;;4880097;29;20196;-83
2023/11/23 15:58:55;;;;;;;1.73;1.70;;;8.50;97.30;;;;;;4880876;29;20429;-86
2023/11/23 16:01:24;;;;;;;3.37;2.97;;;8.50;97.30;;;;;;4882950;29;20489;-85
2023/11/23 16:03:50;;;;;;;2.07;1.93;;;8.50;97.30;;;;;;4880039;29;20217;-86
2023/11/23 16:06:17;;;;;;;2.23;1.97;;;8.50;97.30;;;;;;4892537;29;20433;-86
2023/11/23 16:08:44;;;;;;;3.30;3.10;;;8.50;97.30;;;;;;4880247;29;20425;-86
2023/11/23 16:11:09;;;;;;;2.20;2.00;;;8.60;97.30;;;;;;4879818;29;20453;-84
2023/11/23 16:13:35;;;;;;;1.90;1.80;;;8.60;97.30;;;;;;4896532;29;20931;-86
2023/11/23 16:16:01;;;;;;;1.33;1.23;;;8.60;97.30;;;;;;4880108;29;20186;-86
2023/11/23 16:18:28;;;;;;;1.47;1.43;;;8.60;97.30;;;;;;4879619;29;20185;-85
2023/11/23 16:20:54;;;;;;;1.93;1.87;;;8.60;97.30;;;;;;4875654;29;20624;-85
2023/11/23 16:23:19;;;;;;;2.13;1.97;;;8.60;97.30;;;;;;4880203;29;20513;-85
2023/11/23 16:25:46;;;;;;;6.97;3.33;;;8.60;97.30;;;;;;4875758;29;20449;-85
2023/11/23 16:28:12;;;;;;;1.33;1.10;;;8.60;97.30;;;;;;4878387;29;20796;-86
2023/11/23 16:30:40;;;;;;;1.87;1.73;;;8.60;97.30;;;;;;4896442;29;20181;-86
2023/11/23 16:33:05;;;;;;;1.97;1.80;;;8.60;97.30;;;;;;4879431;29;20180;-86
2023/11/23 16:35:31;;;;;;;2.40;2.20;;;8.60;97.30;;;;;;4878525;29;20866;-85
2023/11/23 16:37:57;;;;;;;6.37;1.87;;;8.60;97.30;;;;;;4872506;29;20737;-86
2023/11/23 16:40:23;;;;;;;1.40;1.37;;;8.60;97.30;;;;;;4887742;29;20273;-84
2023/11/23 16:42:48;;;;;;;2.40;2.10;;;8.70;97.30;;;;;;4895878;29;20311;-85
2023/11/23 16:45:14;;;;;;;2.13;1.97;;;8.70;97.30;;;;;;4879074;29;20508;-86
2023/11/23 16:47:40;;;;;;;4.50;1.67;;;8.70;97.30;;;;;;4881415;29;20664;-85
2023/11/23 16:50:09;;;;;;;4.77;3.37;;;8.70;97.30;;;;;;4878997;29;20189;-87
2023/11/23 16:52:35;;;;;;;2.33;2.13;;;8.80;97.30;;;;;;4895742;29;20460;-84
2023/11/23 16:55:02;;;;;;;1.63;1.53;;;8.80;97.30;;;;;;4896401;29;20582;-83
2023/11/23 16:57:27;;;;;;;1.67;1.40;;;8.80;97.30;;;;;;4879386;29;20259;-83
2023/11/23 16:59:53;;;;;;;3.90;3.77;;;8.90;97.30;;;;;;4879664;29;20952;-85
2023/11/23 17:02:19;;;;;;;3.27;2.23;;;8.90;97.30;;;;;;4879388;29;20268;-86
2023/11/23 17:04:46;;;;;;;3.60;3.00;;;8.90;97.30;;;;;;4878815;29;20699;-83
2023/11/23 17:07:13;;;;;;;2.93;2.73;;;9.00;97.30;;;;;;4896135;29;20556;-86
2023/11/23 17:09:38;;;;;;;2.43;1.83;;;9.00;97.30;;;;;;4879348;29;21029;-85
2023/11/23 17:12:04;;;;;;;2.13;1.97;;;9.00;97.30;;;;;;4881890;29;20469;-86
2023/11/23 17:14:29;;;;;;;1.17;1.07;;;9.00;97.30;;;;;;4879079;29;20425;-85
2023/11/23 17:16:55;;;;;;;2.17;2.00;;;9.10;97.30;;;;;;4896130;29;20185;-85
2023/11/23 17:19:23;;;;;;;3.73;2.00;;;9.10;97.30;;;;;;4878752;29;20700;-85
2023/11/23 17:21:50;;;;;;;1.90;1.80;;;9.10;97.30;;;;;;4877694;29;20248;-86
2023/11/23 17:24:16;;;;;;;2.40;1.70;;;9.10;97.30;;;;;;4895224;29;20454;-86
2023/11/23 17:26:42;;;;;;;2.50;2.20;;;9.20;97.30;;;;;;4895110;29;20444;-86
2023/11/23 17:29:09;;;;;;;9.00;3.33;;;9.20;97.30;;;;;;4878222;29;20528;-85
2023/11/23 17:31:35;;;;;;;1.47;1.47;;;9.20;97.30;;;;;;4895001;29;20224;-86
2023/11/23 17:34:00;;;;;;;11.93;2.30;;;9.20;97.30;;;;;;4878217;29;20468;-85
2023/11/23 17:36:27;;;;;;;2.00;1.40;;;9.20;97.30;;;;;;4895068;29;20615;-85
2023/11/23 17:38:53;;;;;;;2.80;2.60;;;9.20;97.30;;;;;;4878405;29;20189;-85
2023/11/23 17:41:19;;;;;;;1.77;1.40;;;9.30;97.30;;;;;;4881981;29;20560;-87
2023/11/23 17:43:46;;;;;;;2.20;1.67;;;9.30;97.30;;;;;;4882497;29;20947;-84
2023/11/23 17:46:12;;;;;;;2.07;1.53;;;9.30;97.30;;;;;;4882558;29;20465;-85
2023/11/23 17:48:38;;;;;;;2.83;1.70;;;9.40;97.30;;;;;;4882218;29;20524;-85
2023/11/23 17:51:05;;;;;;;3.00;2.80;;;9.40;97.30;;;;;;4882150;29;20541;-85
2023/11/23 17:53:30;;;;;;;1.73;1.63;;;9.40;97.30;;;;;;4878373;29;20234;-87
2023/11/23 17:55:57;;;;;;;11.17;1.93;;;9.50;97.30;;;;;;4881929;29;20433;-83